Map

Track Data

SID SEASON NUMBER BASIN SUBBASIN NAME ISO_TIME NATURE LAT LON WMO_WIND WMO_PRES WMO_AGENCY TRACK_TYPE DIST2LAND LANDFALL IFLAG USA_AGENCY USA_ATCF_ID USA_LAT USA_LON USA_RECORD USA_STATUS USA_WIND USA_PRES USA_SSHS USA_R34_NE USA_R34_SE USA_R34_SW USA_R34_NW USA_R50_NE USA_R50_SE USA_R50_SW USA_R50_NW USA_R64_NE USA_R64_SE USA_R64_SW USA_R64_NW USA_POCI USA_ROCI USA_RMW USA_EYE TOKYO_LAT TOKYO_LON TOKYO_GRADE TOKYO_WIND TOKYO_PRES TOKYO_R50_DIR TOKYO_R50_LONG TOKYO_R50_SHORT TOKYO_R30_DIR TOKYO_R30_LONG TOKYO_R30_SHORT TOKYO_LAND CMA_LAT CMA_LON CMA_CAT CMA_WIND CMA_PRES HKO_LAT HKO_LON HKO_CAT HKO_WIND HKO_PRES NEWDELHI_LAT NEWDELHI_LON NEWDELHI_GRADE NEWDELHI_WIND NEWDELHI_PRES NEWDELHI_CI NEWDELHI_DP NEWDELHI_POCI REUNION_LAT REUNION_LON REUNION_TYPE REUNION_WIND REUNION_PRES REUNION_TNUM REUNION_CI REUNION_RMW REUNION_R34_NE REUNION_R34_SE REUNION_R34_SW REUNION_R34_NW REUNION_R50_NE REUNION_R50_SE REUNION_R50_SW REUNION_R50_NW REUNION_R64_NE REUNION_R64_SE REUNION_R64_SW REUNION_R64_NW BOM_LAT BOM_LON BOM_TYPE BOM_WIND BOM_PRES BOM_TNUM BOM_CI BOM_RMW BOM_R34_NE BOM_R34_SE BOM_R34_SW BOM_R34_NW BOM_R50_NE BOM_R50_SE BOM_R50_SW BOM_R50_NW BOM_R64_NE BOM_R64_SE BOM_R64_SW BOM_R64_NW BOM_ROCI BOM_POCI BOM_EYE BOM_POS_METHOD BOM_PRES_METHOD NADI_LAT NADI_LON NADI_CAT NADI_WIND NADI_PRES WELLINGTON_LAT WELLINGTON_LON WELLINGTON_WIND WELLINGTON_PRES DS824_LAT DS824_LON DS824_STAGE DS824_WIND DS824_PRES TD9636_LAT TD9636_LON TD9636_STAGE TD9636_WIND TD9636_PRES TD9635_LAT TD9635_LON TD9635_WIND TD9635_PRES TD9635_ROCI NEUMANN_LAT NEUMANN_LON NEUMANN_CLASS NEUMANN_WIND NEUMANN_PRES MLC_LAT MLC_LON MLC_CLASS MLC_WIND MLC_PRES USA_GUST BOM_GUST BOM_GUST_PER REUNION_GUST REUNION_GUST_PER USA_SEAHGT USA_SEARAD_NE USA_SEARAD_SE USA_SEARAD_SW USA_SEARAD_NW STORM_SPEED STORM_DIR
1992354N03075 1992 130 NI AS NOT_NAMED 1992-12-18 12:00:00 NR 2.60000 74.5000 main 689 689 O_____________ jtwc_io IO121992 2.60000 74.5000 25 -1 8 276
1992354N03075 1992 130 NI AS NOT_NAMED 1992-12-18 15:00:00 NR 2.64502 74.1025 main 710 701 P_____________ IO121992 2.64502 74.1025 25 -1 8 277
1992354N03075 1992 130 NI AS NOT_NAMED 1992-12-18 18:00:00 NR 2.70000 73.7000 main 724 724 O_____________ jtwc_io IO121992 2.70000 73.7000 25 -1 8 279
1992354N03075 1992 130 NI AS NOT_NAMED 1992-12-18 21:00:00 NR 2.77749 73.2925 main 740 740 P_____________ IO121992 2.77749 73.2925 25 -1 8 284
1992354N03075 1992 130 NI AS NOT_NAMED 1992-12-19 00:00:00 NR 2.90000 72.9000 main 759 758 O_____________ jtwc_io IO121992 2.90000 72.9000 25 -1 8 293
1992354N03075 1992 130 NI AS NOT_NAMED 1992-12-19 03:00:00 NR 3.09248 72.5425 main 772 771 P_____________ IO121992 3.09248 72.5425 25 -1 8 300
1992354N03075 1992 130 NI AS NOT_NAMED 1992-12-19 06:00:00 NR 3.30000 72.2000 main 779 779 O_____________ jtwc_io IO121992 3.30000 72.2000 25 -1 8 297
1992354N03075 1992 130 NI AS NOT_NAMED 1992-12-19 09:00:00 NR 3.44999 71.8425 main 795 795 P_____________ IO121992 3.44999 71.8425 25 -1 8 293
1992354N03075 1992 130 NI AS NOT_NAMED 1992-12-19 12:00:00 NR 3.60000 71.5000 main 810 810 O_____________ jtwc_io IO121992 3.60000 71.5000 25 -1 7 298
1992354N03075 1992 130 NI AS NOT_NAMED 1992-12-19 15:00:00 NR 3.79249 71.1850 main 818 818 P_____________ IO121992 3.79249 71.1850 25 -1 7 304
1992354N03075 1992 130 NI AS NOT_NAMED 1992-12-19 18:00:00 NR 4.00000 70.9000 main 827 827 O_____________ jtwc_io IO121992 4.00000 70.9000 25 -1 7 307
1992354N03075 1992 130 NI AS NOT_NAMED 1992-12-19 21:00:00 NR 4.20748 70.6425 main 838 831 P_____________ IO121992 4.20748 70.6425 27 -1 6 309
1992354N03075 1992 130 NI AS NOT_NAMED 1992-12-20 00:00:00 NR 4.40000 70.4000 main 841 841 O_____________ jtwc_io IO121992 4.40000 70.4000 30 -1 6 306
1992354N03075 1992 130 NI AS NOT_NAMED 1992-12-20 03:00:00 NR 4.55749 70.1500 main 846 855 P_____________ IO121992 4.55749 70.1500 30 -1 6 301
1992354N03075 1992 130 NI AS NOT_NAMED 1992-12-20 06:00:00 NR 4.70000 69.9000 main 867 867 O_____________ jtwc_io IO121992 4.70000 69.9000 30 -1 6 300
1992354N03075 1992 130 NI AS NOT_NAMED 1992-12-20 09:00:00 NR 4.83496 69.6724 main 880 880 P_____________ IO121992 4.83496 69.6724 30 -1 6 301
1992354N03075 1992 130 NI AS NOT_NAMED 1992-12-20 12:00:00 NR 5.00000 69.4000 main 897 897 O_____________ jtwc_io IO121992 5.00000 69.4000 30 -1 8 303
1992354N03075 1992 130 NI AS NOT_NAMED 1992-12-20 15:00:00 NR 5.24998 69.0375 main 926 921 P_____________ IO121992 5.24998 69.0375 32 -1 9 302
1992354N03075 1992 130 NI AS NOT_NAMED 1992-12-20 18:00:00 NR 5.50000 68.6000 main 951 951 O_____________ jtwc_io IO121992 5.50000 68.6000 35 0 10 295
1992354N03075 1992 130 NI AS NOT_NAMED 1992-12-20 21:00:00 NR 5.67245 68.1300 main 994 994 P_____________ IO121992 5.67245 68.1300 37 0 10 287
1992354N03075 1992 130 NI AS NOT_NAMED 1992-12-21 00:00:00 NR 5.80000 67.6000 main 1040 1040 O_____________ jtwc_io IO121992 5.80000 67.6000 40 0 11 282
1992354N03075 1992 130 NI AS NOT_NAMED 1992-12-21 03:00:00 NR 5.90743 67.0299 main 1098 1098 P_____________ IO121992 5.90743 67.0299 40 0 12 280
1992354N03075 1992 130 NI AS NOT_NAMED 1992-12-21 06:00:00 NR 6.00000 66.4000 main 1156 1156 O_____________ jtwc_io IO121992 6.00000 66.4000 40 0 13 279
1992354N03075 1992 130 NI AS NOT_NAMED 1992-12-21 09:00:00 NR 6.10746 65.7150 main 1225 1225 P_____________ IO121992 6.10746 65.7150 40 0 14 278
1992354N03075 1992 130 NI AS NOT_NAMED 1992-12-21 12:00:00 NR 6.20000 65.0000 main 1295 1286 O_____________ jtwc_io IO121992 6.20000 65.0000 40 0 14 277
1992354N03075 1992 130 NI AS NOT_NAMED 1992-12-21 15:00:00 NR 6.27238 64.3075 main 1286 1222 P_____________ IO121992 6.27238 64.3075 40 0 14 274
1992354N03075 1992 130 NI AS NOT_NAMED 1992-12-21 18:00:00 NR 6.30000 63.6000 main 1222 1160 O_____________ jtwc_io IO121992 6.30000 63.6000 40 0 14 270
1992354N03075 1992 130 NI AS NOT_NAMED 1992-12-21 21:00:00 NR 6.27239 62.8650 main 1160 1099 P_____________ IO121992 6.27239 62.8650 40 0 15 266
1992354N03075 1992 130 NI AS NOT_NAMED 1992-12-22 00:00:00 NR 6.20000 62.1000 main 1099 1050 O_____________ jtwc_io IO121992 6.20000 62.1000 40 0 16 263
1992354N03075 1992 130 NI AS NOT_NAMED 1992-12-22 03:00:00 NR 6.08492 61.3074 main 1042 990 P_____________ IO121992 6.08492 61.3074 40 0 16 263
1992354N03075 1992 130 NI AS NOT_NAMED 1992-12-22 06:00:00 NR 6.00000 60.5000 main 990 933 O_____________ jtwc_io IO121992 6.00000 60.5000 40 0 16 267
1992354N03075 1992 130 NI AS NOT_NAMED 1992-12-22 09:00:00 NR 6.01242 59.6925 main 933 873 P_____________ IO121992 6.01242 59.6925 40 0 16 274
1992354N03075 1992 130 NI AS NOT_NAMED 1992-12-22 12:00:00 NR 6.10000 58.9000 main 873 823 O_____________ jtwc_io IO121992 6.10000 58.9000 40 0 16 278
1992354N03075 1992 130 NI AS NOT_NAMED 1992-12-22 15:00:00 NR 6.21989 58.1350 main 818 758 P_____________ IO121992 6.21989 58.1350 42 0 15 281
1992354N03075 1992 130 NI AS NOT_NAMED 1992-12-22 18:00:00 NR 6.40000 57.4000 main 758 703 O_____________ jtwc_io IO121992 6.40000 57.4000 45 0 15 286
1992354N03075 1992 130 NI AS NOT_NAMED 1992-12-22 21:00:00 NR 6.64237 56.6925 main 703 637 P_____________ IO121992 6.64237 56.6925 45 0 15 290
1992354N03075 1992 130 NI AS NOT_NAMED 1992-12-23 00:00:00 NR 6.90000 56.0000 main 637 558 O_____________ jtwc_io IO121992 6.90000 56.0000 45 0 15 289
1992354N03075 1992 130 NI AS NOT_NAMED 1992-12-23 03:00:00 NR 7.11493 55.2925 main 558 479 P_____________ IO121992 7.11493 55.2925 45 0 14 286
1992354N03075 1992 130 NI AS NOT_NAMED 1992-12-23 06:00:00 NR 7.30000 54.6000 main 479 415 O_____________ jtwc_io IO121992 7.30000 54.6000 45 0 14 284
1992354N03075 1992 130 NI AS NOT_NAMED 1992-12-23 09:00:00 NR 7.44987 53.9424 main 406 337 P_____________ IO121992 7.44987 53.9424 47 0 13 283
1992354N03075 1992 130 NI AS NOT_NAMED 1992-12-23 12:00:00 NR 7.60000 53.3000 main 337 261 O_____________ jtwc_io IO121992 7.60000 53.3000 50 0 14 285
1992354N03075 1992 130 NI AS NOT_NAMED 1992-12-23 15:00:00 NR 7.80755 52.6126 main 261 196 P_____________ IO121992 7.80755 52.6126 50 0 14 287
1992354N03075 1992 130 NI AS NOT_NAMED 1992-12-23 18:00:00 NR 8.00000 52.0000 main 196 157 O_____________ jtwc_io IO121992 8.00000 52.0000 50 0 11 286
1992354N03075 1992 130 NI AS NOT_NAMED 1992-12-23 21:00:00 NR 8.09980 51.5698 main 157 113 P_____________ IO121992 8.09980 51.5698 50 0 8 284
1992354N03075 1992 130 NI AS NOT_NAMED 1992-12-24 00:00:00 NR 8.20000 51.2000 main 113 64 O_____________ jtwc_io IO121992 8.20000 51.2000 50 0 9 289
1992354N03075 1992 130 NI AS NOT_NAMED 1992-12-24 03:00:00 NR 8.38502 50.7425 main 55 11 P_____________ IO121992 8.38502 50.7425 47 0 10 294
1992354N03075 1992 130 NI AS NOT_NAMED 1992-12-24 06:00:00 NR 8.60000 50.3000 main 11 0 O_____________ jtwc_io IO121992 8.60000 50.3000 45 0 9 297
1992354N03075 1992 130 NI AS NOT_NAMED 1992-12-24 09:00:00 NR 8.79994 49.9275 main 0 0 P_____________ IO121992 8.79994 49.9275 35 0 8 300
1992354N03075 1992 130 NI AS NOT_NAMED 1992-12-24 12:00:00 NR 9.00000 49.6000 main 0 0 O_____________ jtwc_io IO121992 9.00000 49.6000 25 -1 7 303
1992354N03075 1992 130 NI AS NOT_NAMED 1992-12-24 15:00:00 NR 9.20006 49.2951 main 0 0 P_____________ IO121992 9.20006 49.2951 20 -1 7 304
1992354N03075 1992 130 NI AS NOT_NAMED 1992-12-24 18:00:00 NR 9.40000 49.0000 main 0 O_____________ jtwc_io IO121992 9.40000 49.0000 15 -1 7 304

About IBTrACS Database

This database is a web-friendly format of International Best Track Archive for Climate Stewardship (IBTrACS), a global best track data archive curated by NOAA dating back to 1842.

Updated: 2021-10-08